sensor_id;sensor_type;location;lat;lon;timestamp;P1;durP1;ratioP1;P2;durP2;ratioP2
4694;SDS011;2361;49.540;8.390;2023-03-01T00:01:38;9.00;;;7.00;;
4694;SDS011;2361;49.540;8.390;2023-03-01T00:04:05;11.07;;;6.93;;
4694;SDS011;2361;49.540;8.390;2023-03-01T00:06:32;9.43;;;5.78;;
4694;SDS011;2361;49.540;8.390;2023-03-01T00:08:59;7.60;;;6.75;;
4694;SDS011;2361;49.540;8.390;2023-03-01T00:11:28;8.50;;;6.70;;
4694;SDS011;2361;49.540;8.390;2023-03-01T00:13:57;9.95;;;6.75;;
4694;SDS011;2361;49.540;8.390;2023-03-01T00:16:28;8.05;;;6.35;;
4694;SDS011;2361;49.540;8.390;2023-03-01T00:18:59;9.98;;;6.85;;
4694;SDS011;2361;49.540;8.390;2023-03-01T00:21:26;8.02;;;6.32;;
4694;SDS011;2361;49.540;8.390;2023-03-01T00:23:54;8.93;;;7.05;;
4694;SDS011;2361;49.540;8.390;2023-03-01T00:26:22;7.60;;;6.80;;
4694;SDS011;2361;49.540;8.390;2023-03-01T00:28:51;8.50;;;6.47;;
4694;SDS011;2361;49.540;8.390;2023-03-01T00:31:19;8.73;;;6.85;;
4694;SDS011;2361;49.540;8.390;2023-03-01T00:33:52;11.13;;;6.63;;
4694;SDS011;2361;49.540;8.390;2023-03-01T00:36:24;7.88;;;4.53;;
4694;SDS011;2361;49.540;8.390;2023-03-01T00:38:55;8.35;;;6.65;;
4694;SDS011;2361;49.540;8.390;2023-03-01T00:41:22;8.20;;;6.07;;
4694;SDS011;2361;49.540;8.390;2023-03-01T00:43:50;8.52;;;6.63;;
4694;SDS011;2361;49.540;8.390;2023-03-01T00:46:18;7.97;;;6.90;;
4694;SDS011;2361;49.540;8.390;2023-03-01T00:48:48;8.80;;;6.50;;
4694;SDS011;2361;49.540;8.390;2023-03-01T00:51:16;7.85;;;5.95;;
4694;SDS011;2361;49.540;8.390;2023-03-01T00:53:53;9.10;;;7.35;;
4694;SDS011;2361;49.540;8.390;2023-03-01T00:56:23;9.18;;;6.50;;
4694;SDS011;2361;49.540;8.390;2023-03-01T00:58:50;10.05;;;6.05;;
4694;SDS011;2361;49.540;8.390;2023-03-01T01:01:18;8.90;;;6.30;;
4694;SDS011;2361;49.540;8.390;2023-03-01T01:03:49;9.43;;;5.95;;
4694;SDS011;2361;49.540;8.390;2023-03-01T01:08:56;9.77;;;6.80;;
4694;SDS011;2361;49.540;8.390;2023-03-01T01:11:26;8.68;;;6.45;;
4694;SDS011;2361;49.540;8.390;2023-03-01T01:13:55;9.95;;;6.93;;
4694;SDS011;2361;49.540;8.390;2023-03-01T01:16:24;9.75;;;6.75;;
4694;SDS011;2361;49.540;8.390;2023-03-01T01:18:53;9.60;;;5.90;;
4694;SDS011;2361;49.540;8.390;2023-03-01T01:21:21;9.02;;;6.65;;
4694;SDS011;2361;49.540;8.390;2023-03-01T01:23:50;8.60;;;6.90;;
4694;SDS011;2361;49.540;8.390;2023-03-01T01:26:19;10.20;;;6.90;;
4694;SDS011;2361;49.540;8.390;2023-03-01T01:28:49;14.85;;;7.43;;
4694;SDS011;2361;49.540;8.390;2023-03-01T01:31:17;9.15;;;6.07;;
4694;SDS011;2361;49.540;8.390;2023-03-01T01:33:45;8.73;;;5.80;;
4694;SDS011;2361;49.540;8.390;2023-03-01T01:36:13;10.00;;;5.88;;
4694;SDS011;2361;49.540;8.390;2023-03-01T01:38:40;11.48;;;6.93;;
4694;SDS011;2361;49.540;8.390;2023-03-01T01:41:08;9.73;;;5.35;;
4694;SDS011;2361;49.540;8.390;2023-03-01T01:43:41;8.45;;;6.25;;
4694;SDS011;2361;49.540;8.390;2023-03-01T01:46:25;10.90;;;6.55;;
4694;SDS011;2361;49.540;8.390;2023-03-01T01:49:06;9.27;;;6.93;;
4694;SDS011;2361;49.540;8.390;2023-03-01T01:51:45;6.53;;;5.78;;
4694;SDS011;2361;49.540;8.390;2023-03-01T01:54:16;11.20;;;6.93;;
4694;SDS011;2361;49.540;8.390;2023-03-01T01:56:58;7.63;;;5.57;;
4694;SDS011;2361;49.540;8.390;2023-03-01T01:59:30;7.30;;;5.25;;
4694;SDS011;2361;49.540;8.390;2023-03-01T02:01:59;8.25;;;5.43;;
4694;SDS011;2361;49.540;8.390;2023-03-01T02:04:29;7.70;;;4.72;;
4694;SDS011;2361;49.540;8.390;2023-03-01T02:07:01;8.35;;;5.57;;
4694;SDS011;2361;49.540;8.390;2023-03-01T02:09:35;10.50;;;6.00;;
4694;SDS011;2361;49.540;8.390;2023-03-01T02:12:02;7.20;;;4.88;;
4694;SDS011;2361;49.540;8.390;2023-03-01T02:14:31;10.35;;;6.72;;
4694;SDS011;2361;49.540;8.390;2023-03-01T02:16:58;10.55;;;7.95;;
4694;SDS011;2361;49.540;8.390;2023-03-01T02:19:36;11.00;;;7.13;;
4694;SDS011;2361;49.540;8.390;2023-03-01T02:22:35;11.32;;;8.32;;
4694;SDS011;2361;49.540;8.390;2023-03-01T02:27:59;9.68;;;5.90;;
4694;SDS011;2361;49.540;8.390;2023-03-01T02:30:35;10.50;;;6.05;;
4694;SDS011;2361;49.540;8.390;2023-03-01T02:33:03;9.75;;;7.30;;
4694;SDS011;2361;49.540;8.390;2023-03-01T02:35:34;9.05;;;6.35;;
4694;SDS011;2361;49.540;8.390;2023-03-01T02:38:06;13.02;;;7.53;;
4694;SDS011;2361;49.540;8.390;2023-03-01T02:40:35;12.43;;;8.10;;
4694;SDS011;2361;49.540;8.390;2023-03-01T02:43:04;8.88;;;7.15;;
4694;SDS011;2361;49.540;8.390;2023-03-01T02:45:35;13.10;;;7.88;;
4694;SDS011;2361;49.540;8.390;2023-03-01T02:48:02;10.40;;;7.40;;
4694;SDS011;2361;49.540;8.390;2023-03-01T02:56:09;13.55;;;7.78;;
4694;SDS011;2361;49.540;8.390;2023-03-01T02:58:40;13.35;;;7.78;;
4694;SDS011;2361;49.540;8.390;2023-03-01T03:01:12;13.80;;;9.25;;
4694;SDS011;2361;49.540;8.390;2023-03-01T03:03:41;9.32;;;6.07;;
4694;SDS011;2361;49.540;8.390;2023-03-01T03:06:08;11.25;;;9.35;;
4694;SDS011;2361;49.540;8.390;2023-03-01T03:08:36;11.35;;;8.20;;
4694;SDS011;2361;49.540;8.390;2023-03-01T03:11:03;13.20;;;7.40;;
4694;SDS011;2361;49.540;8.390;2023-03-01T03:13:30;12.75;;;7.78;;
4694;SDS011;2361;49.540;8.390;2023-03-01T03:15:58;11.90;;;8.05;;
4694;SDS011;2361;49.540;8.390;2023-03-01T03:18:25;13.98;;;8.15;;
4694;SDS011;2361;49.540;8.390;2023-03-01T03:20:52;10.80;;;8.23;;
4694;SDS011;2361;49.540;8.390;2023-03-01T03:23:20;14.10;;;8.40;;
4694;SDS011;2361;49.540;8.390;2023-03-01T03:25:51;11.32;;;8.85;;
4694;SDS011;2361;49.540;8.390;2023-03-01T03:28:18;11.75;;;8.50;;
4694;SDS011;2361;49.540;8.390;2023-03-01T03:30:45;13.13;;;9.15;;
4694;SDS011;2361;49.540;8.390;2023-03-01T03:33:13;14.30;;;9.45;;
4694;SDS011;2361;49.540;8.390;2023-03-01T03:35:41;12.73;;;8.48;;
4694;SDS011;2361;49.540;8.390;2023-03-01T03:38:13;12.70;;;7.45;;
4694;SDS011;2361;49.540;8.390;2023-03-01T03:40:46;12.80;;;7.68;;
4694;SDS011;2361;49.540;8.390;2023-03-01T03:43:30;5.63;;;3.65;;
4694;SDS011;2361;49.540;8.390;2023-03-01T03:45:59;11.50;;;6.97;;
4694;SDS011;2361;49.540;8.390;2023-03-01T03:48:27;13.63;;;8.15;;
4694;SDS011;2361;49.540;8.390;2023-03-01T03:50:55;10.13;;;7.55;;
4694;SDS011;2361;49.540;8.390;2023-03-01T03:53:23;10.73;;;6.78;;
4694;SDS011;2361;49.540;8.390;2023-03-01T03:55:53;14.65;;;7.60;;
4694;SDS011;2361;49.540;8.390;2023-03-01T03:58:20;14.43;;;6.68;;
4694;SDS011;2361;49.540;8.390;2023-03-01T04:00:50;10.07;;;4.95;;
4694;SDS011;2361;49.540;8.390;2023-03-01T04:03:22;12.63;;;8.32;;
4694;SDS011;2361;49.540;8.390;2023-03-01T04:05:52;12.95;;;7.50;;
4694;SDS011;2361;49.540;8.390;2023-03-01T04:08:20;11.35;;;7.07;;
4694;SDS011;2361;49.540;8.390;2023-03-01T04:10:50;13.32;;;6.47;;
4694;SDS011;2361;49.540;8.390;2023-03-01T04:13:23;13.07;;;8.75;;
4694;SDS011;2361;49.540;8.390;2023-03-01T04:15:52;11.40;;;7.78;;
4694;SDS011;2361;49.540;8.390;2023-03-01T04:18:21;12.80;;;8.27;;
4694;SDS011;2361;49.540;8.390;2023-03-01T04:20:51;13.15;;;8.48;;
4694;SDS011;2361;49.540;8.390;2023-03-01T04:23:21;11.10;;;7.70;;
4694;SDS011;2361;49.540;8.390;2023-03-01T04:25:49;12.85;;;7.35;;
4694;SDS011;2361;49.540;8.390;2023-03-01T04:28:41;11.68;;;7.65;;
4694;SDS011;2361;49.540;8.390;2023-03-01T04:31:12;12.55;;;8.02;;
4694;SDS011;2361;49.540;8.390;2023-03-01T04:36:18;13.45;;;8.75;;
4694;SDS011;2361;49.540;8.390;2023-03-01T04:38:47;12.60;;;8.35;;
4694;SDS011;2361;49.540;8.390;2023-03-01T04:41:16;12.25;;;7.47;;
4694;SDS011;2361;49.540;8.390;2023-03-01T04:43:45;12.18;;;8.00;;
4694;SDS011;2361;49.540;8.390;2023-03-01T04:46:13;13.90;;;8.73;;
4694;SDS011;2361;49.540;8.390;2023-03-01T04:48:44;11.10;;;7.70;;
4694;SDS011;2361;49.540;8.390;2023-03-01T04:51:12;14.20;;;7.38;;
4694;SDS011;2361;49.540;8.390;2023-03-01T04:53:40;11.80;;;6.80;;
4694;SDS011;2361;49.540;8.390;2023-03-01T04:56:08;8.23;;;4.72;;
4694;SDS011;2361;49.540;8.390;2023-03-01T04:58:36;12.25;;;7.40;;
4694;SDS011;2361;49.540;8.390;2023-03-01T05:01:07;10.07;;;6.30;;
4694;SDS011;2361;49.540;8.390;2023-03-01T05:03:50;11.27;;;6.63;;
4694;SDS011;2361;49.540;8.390;2023-03-01T05:06:18;13.45;;;7.25;;
4694;SDS011;2361;49.540;8.390;2023-03-01T05:08:46;12.63;;;7.65;;
4694;SDS011;2361;49.540;8.390;2023-03-01T05:11:13;9.93;;;6.55;;
4694;SDS011;2361;49.540;8.390;2023-03-01T05:13:40;16.13;;;7.05;;
4694;SDS011;2361;49.540;8.390;2023-03-01T05:16:08;14.02;;;7.95;;
4694;SDS011;2361;49.540;8.390;2023-03-01T05:18:37;11.07;;;5.72;;
4694;SDS011;2361;49.540;8.390;2023-03-01T05:21:06;9.48;;;6.07;;
4694;SDS011;2361;49.540;8.390;2023-03-01T05:23:36;12.73;;;8.30;;
4694;SDS011;2361;49.540;8.390;2023-03-01T05:26:05;11.88;;;5.88;;
4694;SDS011;2361;49.540;8.390;2023-03-01T05:28:41;10.75;;;6.70;;
4694;SDS011;2361;49.540;8.390;2023-03-01T05:31:08;9.07;;;5.03;;
4694;SDS011;2361;49.540;8.390;2023-03-01T05:33:39;9.80;;;5.38;;
4694;SDS011;2361;49.540;8.390;2023-03-01T05:36:07;11.25;;;6.03;;
4694;SDS011;2361;49.540;8.390;2023-03-01T05:38:38;10.90;;;6.65;;
4694;SDS011;2361;49.540;8.390;2023-03-01T05:41:05;11.18;;;6.43;;
4694;SDS011;2361;49.540;8.390;2023-03-01T05:43:41;11.50;;;6.80;;
4694;SDS011;2361;49.540;8.390;2023-03-01T05:46:10;11.70;;;6.38;;
4694;SDS011;2361;49.540;8.390;2023-03-01T05:48:39;14.32;;;7.38;;
4694;SDS011;2361;49.540;8.390;2023-03-01T05:51:07;13.65;;;7.43;;
4694;SDS011;2361;49.540;8.390;2023-03-01T05:53:34;8.73;;;4.93;;
4694;SDS011;2361;49.540;8.390;2023-03-01T05:56:02;13.18;;;6.10;;
4694;SDS011;2361;49.540;8.390;2023-03-01T05:58:32;10.45;;;5.00;;
4694;SDS011;2361;49.540;8.390;2023-03-01T06:00:59;11.40;;;5.95;;
4694;SDS011;2361;49.540;8.390;2023-03-01T06:03:26;11.93;;;6.32;;
4694;SDS011;2361;49.540;8.390;2023-03-01T06:05:57;13.63;;;7.10;;
4694;SDS011;2361;49.540;8.390;2023-03-01T06:08:24;12.80;;;7.65;;
4694;SDS011;2361;49.540;8.390;2023-03-01T06:10:53;12.90;;;6.75;;
4694;SDS011;2361;49.540;8.390;2023-03-01T06:13:20;11.45;;;6.65;;
4694;SDS011;2361;49.540;8.390;2023-03-01T06:15:47;13.13;;;5.97;;
4694;SDS011;2361;49.540;8.390;2023-03-01T06:18:14;11.27;;;5.65;;
4694;SDS011;2361;49.540;8.390;2023-03-01T06:20:41;11.80;;;6.05;;
4694;SDS011;2361;49.540;8.390;2023-03-01T06:23:08;8.23;;;5.22;;
4694;SDS011;2361;49.540;8.390;2023-03-01T06:25:36;9.57;;;5.50;;
4694;SDS011;2361;49.540;8.390;2023-03-01T06:28:03;12.70;;;7.45;;
4694;SDS011;2361;49.540;8.390;2023-03-01T06:30:30;2.40;;;2.15;;
4694;SDS011;2361;49.540;8.390;2023-03-01T06:32:58;13.10;;;7.07;;
4694;SDS011;2361;49.540;8.390;2023-03-01T06:35:27;9.40;;;4.97;;
4694;SDS011;2361;49.540;8.390;2023-03-01T06:37:56;7.30;;;5.32;;
4694;SDS011;2361;49.540;8.390;2023-03-01T06:40:25;10.88;;;6.97;;
4694;SDS011;2361;49.540;8.390;2023-03-01T06:42:52;9.82;;;6.97;;
4694;SDS011;2361;49.540;8.390;2023-03-01T06:45:19;14.73;;;8.15;;
4694;SDS011;2361;49.540;8.390;2023-03-01T06:47:47;4.32;;;2.80;;
4694;SDS011;2361;49.540;8.390;2023-03-01T06:50:14;14.07;;;8.52;;
4694;SDS011;2361;49.540;8.390;2023-03-01T06:52:43;18.40;;;6.97;;
4694;SDS011;2361;49.540;8.390;2023-03-01T06:55:11;14.68;;;7.05;;
4694;SDS011;2361;49.540;8.390;2023-03-01T06:57:39;12.18;;;8.20;;
4694;SDS011;2361;49.540;8.390;2023-03-01T07:00:06;9.85;;;5.32;;
4694;SDS011;2361;49.540;8.390;2023-03-01T07:02:34;13.45;;;7.80;;
4694;SDS011;2361;49.540;8.390;2023-03-01T07:05:01;12.77;;;8.52;;
4694;SDS011;2361;49.540;8.390;2023-03-01T07:07:28;16.63;;;8.75;;
4694;SDS011;2361;49.540;8.390;2023-03-01T07:09:55;13.18;;;8.68;;
4694;SDS011;2361;49.540;8.390;2023-03-01T07:12:22;10.90;;;7.43;;
4694;SDS011;2361;49.540;8.390;2023-03-01T07:14:49;12.95;;;8.00;;
4694;SDS011;2361;49.540;8.390;2023-03-01T07:17:16;14.40;;;8.93;;
4694;SDS011;2361;49.540;8.390;2023-03-01T07:19:43;9.03;;;5.53;;
4694;SDS011;2361;49.540;8.390;2023-03-01T07:22:11;12.90;;;7.87;;
4694;SDS011;2361;49.540;8.390;2023-03-01T07:24:38;16.23;;;8.33;;
4694;SDS011;2361;49.540;8.390;2023-03-01T07:27:05;4.13;;;3.00;;
4694;SDS011;2361;49.540;8.390;2023-03-01T07:29:31;14.53;;;6.53;;
4694;SDS011;2361;49.540;8.390;2023-03-01T07:31:58;16.23;;;10.30;;
4694;SDS011;2361;49.540;8.390;2023-03-01T07:34:25;16.07;;;9.90;;
4694;SDS011;2361;49.540;8.390;2023-03-01T07:36:52;7.30;;;4.30;;
4694;SDS011;2361;49.540;8.390;2023-03-01T07:39:19;13.13;;;7.83;;
4694;SDS011;2361;49.540;8.390;2023-03-01T07:41:49;12.60;;;7.00;;
4694;SDS011;2361;49.540;8.390;2023-03-01T07:44:16;13.27;;;9.83;;
4694;SDS011;2361;49.540;8.390;2023-03-01T07:46:44;13.77;;;7.07;;
4694;SDS011;2361;49.540;8.390;2023-03-01T07:49:10;11.83;;;7.33;;
4694;SDS011;2361;49.540;8.390;2023-03-01T07:51:37;14.90;;;10.40;;
4694;SDS011;2361;49.540;8.390;2023-03-01T07:54:05;13.10;;;7.53;;
4694;SDS011;2361;49.540;8.390;2023-03-01T07:56:31;9.73;;;6.80;;
4694;SDS011;2361;49.540;8.390;2023-03-01T07:58:59;15.40;;;9.50;;
4694;SDS011;2361;49.540;8.390;2023-03-01T08:01:26;14.57;;;10.00;;
4694;SDS011;2361;49.540;8.390;2023-03-01T08:03:53;15.17;;;11.60;;
4694;SDS011;2361;49.540;8.390;2023-03-01T08:06:20;19.17;;;11.80;;
4694;SDS011;2361;49.540;8.390;2023-03-01T08:08:47;15.50;;;9.53;;
4694;SDS011;2361;49.540;8.390;2023-03-01T08:11:14;17.40;;;12.13;;
4694;SDS011;2361;49.540;8.390;2023-03-01T08:13:42;16.77;;;10.27;;
4694;SDS011;2361;49.540;8.390;2023-03-01T08:16:11;18.80;;;11.43;;
4694;SDS011;2361;49.540;8.390;2023-03-01T08:18:40;16.17;;;10.50;;
4694;SDS011;2361;49.540;8.390;2023-03-01T08:21:10;18.87;;;12.07;;
4694;SDS011;2361;49.540;8.390;2023-03-01T08:23:40;15.00;;;9.77;;
4694;SDS011;2361;49.540;8.390;2023-03-01T08:26:14;15.70;;;11.00;;
4694;SDS011;2361;49.540;8.390;2023-03-01T08:28:44;16.00;;;9.87;;
4694;SDS011;2361;49.540;8.390;2023-03-01T08:31:20;17.17;;;13.37;;
4694;SDS011;2361;49.540;8.390;2023-03-01T08:34:02;12.90;;;9.20;;
4694;SDS011;2361;49.540;8.390;2023-03-01T08:36:34;17.03;;;12.50;;
4694;SDS011;2361;49.540;8.390;2023-03-01T08:39:04;14.33;;;11.20;;
4694;SDS011;2361;49.540;8.390;2023-03-01T08:41:32;17.10;;;13.10;;
4694;SDS011;2361;49.540;8.390;2023-03-01T08:43:59;16.47;;;12.50;;
4694;SDS011;2361;49.540;8.390;2023-03-01T08:46:33;18.67;;;11.17;;
4694;SDS011;2361;49.540;8.390;2023-03-01T08:49:05;16.63;;;13.33;;
4694;SDS011;2361;49.540;8.390;2023-03-01T08:51:34;15.87;;;12.60;;
4694;SDS011;2361;49.540;8.390;2023-03-01T08:54:07;18.80;;;12.37;;
4694;SDS011;2361;49.540;8.390;2023-03-01T08:56:41;15.10;;;13.50;;
4694;SDS011;2361;49.540;8.390;2023-03-01T08:59:09;19.00;;;12.47;;
4694;SDS011;2361;49.540;8.390;2023-03-01T09:01:37;16.23;;;14.27;;
4694;SDS011;2361;49.540;8.390;2023-03-01T09:04:06;17.30;;;11.90;;
4694;SDS011;2361;49.540;8.390;2023-03-01T09:06:33;18.83;;;12.60;;
4694;SDS011;2361;49.540;8.390;2023-03-01T09:09:01;15.87;;;11.00;;
4694;SDS011;2361;49.540;8.390;2023-03-01T09:11:29;15.93;;;13.10;;
4694;SDS011;2361;49.540;8.390;2023-03-01T09:13:57;15.73;;;11.00;;
4694;SDS011;2361;49.540;8.390;2023-03-01T09:16:24;20.70;;;14.07;;
4694;SDS011;2361;49.540;8.390;2023-03-01T09:18:52;17.97;;;12.90;;
4694;SDS011;2361;49.540;8.390;2023-03-01T09:21:21;19.40;;;13.90;;
4694;SDS011;2361;49.540;8.390;2023-03-01T09:24:05;19.57;;;12.60;;
4694;SDS011;2361;49.540;8.390;2023-03-01T09:26:42;17.90;;;13.43;;
4694;SDS011;2361;49.540;8.390;2023-03-01T09:29:12;18.07;;;12.90;;
4694;SDS011;2361;49.540;8.390;2023-03-01T09:31:40;19.03;;;15.10;;
4694;SDS011;2361;49.540;8.390;2023-03-01T09:34:08;17.73;;;13.07;;
4694;SDS011;2361;49.540;8.390;2023-03-01T09:36:35;19.10;;;14.10;;
4694;SDS011;2361;49.540;8.390;2023-03-01T09:39:03;18.90;;;14.53;;
4694;SDS011;2361;49.540;8.390;2023-03-01T09:41:42;17.83;;;14.80;;
4694;SDS011;2361;49.540;8.390;2023-03-01T09:47:23;16.67;;;13.27;;
4694;SDS011;2361;49.540;8.390;2023-03-01T09:50:11;17.20;;;11.93;;
4694;SDS011;2361;49.540;8.390;2023-03-01T10:01:28;18.87;;;13.80;;
4694;SDS011;2361;49.540;8.390;2023-03-01T10:10:05;24.30;;;14.37;;
4694;SDS011;2361;49.540;8.390;2023-03-01T10:12:35;8.17;;;4.43;;
4694;SDS011;2361;49.540;8.390;2023-03-01T10:15:09;21.23;;;14.60;;
4694;SDS011;2361;49.540;8.390;2023-03-01T10:17:52;20.17;;;11.80;;
4694;SDS011;2361;49.540;8.390;2023-03-01T10:23:19;16.90;;;13.90;;
4694;SDS011;2361;49.540;8.390;2023-03-01T10:31:24;19.73;;;16.07;;
4694;SDS011;2361;49.540;8.390;2023-03-01T10:34:37;16.67;;;12.27;;
4694;SDS011;2361;49.540;8.390;2023-03-01T10:37:14;16.70;;;13.47;;
4694;SDS011;2361;49.540;8.390;2023-03-01T10:42:38;18.67;;;15.00;;
4694;SDS011;2361;49.540;8.390;2023-03-01T10:45:14;18.67;;;12.63;;
4694;SDS011;2361;49.540;8.390;2023-03-01T10:48:30;19.03;;;11.20;;
4694;SDS011;2361;49.540;8.390;2023-03-01T10:53:28;18.77;;;10.43;;
4694;SDS011;2361;49.540;8.390;2023-03-01T10:56:09;16.30;;;10.10;;
4694;SDS011;2361;49.540;8.390;2023-03-01T10:58:56;19.93;;;11.10;;
4694;SDS011;2361;49.540;8.390;2023-03-01T11:01:32;12.97;;;7.60;;
4694;SDS011;2361;49.540;8.390;2023-03-01T11:06:35;17.90;;;10.80;;
4694;SDS011;2361;49.540;8.390;2023-03-01T11:11:54;10.30;;;5.63;;
4694;SDS011;2361;49.540;8.390;2023-03-01T11:14:24;6.97;;;4.90;;
4694;SDS011;2361;49.540;8.390;2023-03-01T11:19:42;18.20;;;8.43;;
4694;SDS011;2361;49.540;8.390;2023-03-01T11:22:22;12.83;;;6.33;;
4694;SDS011;2361;49.540;8.390;2023-03-01T11:24:50;16.10;;;8.90;;
4694;SDS011;2361;49.540;8.390;2023-03-01T11:27:36;19.00;;;6.07;;
4694;SDS011;2361;49.540;8.390;2023-03-01T11:35:29;6.00;;;3.53;;
4694;SDS011;2361;49.540;8.390;2023-03-01T11:38:02;16.47;;;7.30;;
4694;SDS011;2361;49.540;8.390;2023-03-01T11:40:48;9.33;;;3.10;;
4694;SDS011;2361;49.540;8.390;2023-03-01T11:49:45;15.07;;;8.00;;
4694;SDS011;2361;49.540;8.390;2023-03-01T11:52:52;14.60;;;9.23;;
4694;SDS011;2361;49.540;8.390;2023-03-01T12:01:08;20.07;;;13.13;;
4694;SDS011;2361;49.540;8.390;2023-03-01T12:07:02;18.13;;;11.83;;
4694;SDS011;2361;49.540;8.390;2023-03-01T12:12:43;15.63;;;8.90;;
4694;SDS011;2361;49.540;8.390;2023-03-01T12:21:21;14.20;;;8.37;;
4694;SDS011;2361;49.540;8.390;2023-03-01T12:42:38;15.10;;;8.20;;
4694;SDS011;2361;49.540;8.390;2023-03-01T12:45:47;16.30;;;11.60;;
4694;SDS011;2361;49.540;8.390;2023-03-01T12:48:24;8.00;;;5.50;;
4694;SDS011;2361;49.540;8.390;2023-03-01T12:51:07;14.02;;;10.88;;
4694;SDS011;2361;49.540;8.390;2023-03-01T12:53:41;12.87;;;6.80;;
4694;SDS011;2361;49.540;8.390;2023-03-01T12:56:19;16.83;;;10.80;;
4694;SDS011;2361;49.540;8.390;2023-03-01T13:01:36;10.20;;;7.07;;
4694;SDS011;2361;49.540;8.390;2023-03-01T13:07:41;17.67;;;10.73;;
4694;SDS011;2361;49.540;8.390;2023-03-01T13:13:02;14.50;;;8.10;;
4694;SDS011;2361;49.540;8.390;2023-03-01T13:15:40;13.77;;;8.27;;
4694;SDS011;2361;49.540;8.390;2023-03-01T13:20:47;6.27;;;3.87;;
4694;SDS011;2361;49.540;8.390;2023-03-01T13:31:01;15.17;;;10.27;;
4694;SDS011;2361;49.540;8.390;2023-03-01T13:33:41;16.40;;;11.97;;
4694;SDS011;2361;49.540;8.390;2023-03-01T13:49:48;14.53;;;9.27;;
4694;SDS011;2361;49.540;8.390;2023-03-01T13:52:45;15.60;;;11.10;;
4694;SDS011;2361;49.540;8.390;2023-03-01T13:55:36;14.23;;;10.80;;
4694;SDS011;2361;49.540;8.390;2023-03-01T13:58:16;14.00;;;7.17;;
4694;SDS011;2361;49.540;8.390;2023-03-01T14:00:55;16.00;;;10.10;;
4694;SDS011;2361;49.540;8.390;2023-03-01T14:03:31;14.43;;;8.90;;
4694;SDS011;2361;49.540;8.390;2023-03-01T14:08:47;11.80;;;8.03;;
4694;SDS011;2361;49.540;8.390;2023-03-01T14:14:27;11.80;;;7.20;;
4694;SDS011;2361;49.540;8.390;2023-03-01T14:20:24;12.83;;;9.30;;
4694;SDS011;2361;49.540;8.390;2023-03-01T14:22:58;13.90;;;9.57;;
4694;SDS011;2361;49.540;8.390;2023-03-01T14:25:32;10.83;;;8.10;;
4694;SDS011;2361;49.540;8.390;2023-03-01T14:28:13;8.23;;;5.03;;
4694;SDS011;2361;49.540;8.390;2023-03-01T14:30:56;9.50;;;6.10;;
4694;SDS011;2361;49.540;8.390;2023-03-01T14:36:05;12.00;;;6.10;;
4694;SDS011;2361;49.540;8.390;2023-03-01T14:38:39;9.13;;;8.13;;
4694;SDS011;2361;49.540;8.390;2023-03-01T14:41:18;9.80;;;5.80;;
4694;SDS011;2361;49.540;8.390;2023-03-01T14:43:50;10.37;;;5.67;;
4694;SDS011;2361;49.540;8.390;2023-03-01T14:46:34;7.73;;;4.20;;
4694;SDS011;2361;49.540;8.390;2023-03-01T14:49:13;8.20;;;5.63;;
4694;SDS011;2361;49.540;8.390;2023-03-01T14:51:52;7.23;;;4.80;;
4694;SDS011;2361;49.540;8.390;2023-03-01T14:54:29;5.70;;;3.30;;
4694;SDS011;2361;49.540;8.390;2023-03-01T14:57:01;8.80;;;6.70;;
4694;SDS011;2361;49.540;8.390;2023-03-01T14:59:28;8.10;;;5.87;;
4694;SDS011;2361;49.540;8.390;2023-03-01T15:01:56;7.77;;;5.33;;
4694;SDS011;2361;49.540;8.390;2023-03-01T15:04:24;7.67;;;6.53;;
4694;SDS011;2361;49.540;8.390;2023-03-01T15:06:54;8.03;;;5.00;;
4694;SDS011;2361;49.540;8.390;2023-03-01T15:09:31;6.77;;;5.50;;
4694;SDS011;2361;49.540;8.390;2023-03-01T15:12:22;9.37;;;6.73;;
4694;SDS011;2361;49.540;8.390;2023-03-01T15:14:54;9.30;;;5.80;;
4694;SDS011;2361;49.540;8.390;2023-03-01T15:17:30;7.37;;;4.20;;
4694;SDS011;2361;49.540;8.390;2023-03-01T15:20:02;4.33;;;3.67;;
4694;SDS011;2361;49.540;8.390;2023-03-01T15:22:32;14.10;;;5.80;;
4694;SDS011;2361;49.540;8.390;2023-03-01T15:25:01;7.53;;;4.50;;
4694;SDS011;2361;49.540;8.390;2023-03-01T15:27:28;10.43;;;5.20;;
4694;SDS011;2361;49.540;8.390;2023-03-01T15:29:57;5.30;;;4.10;;
4694;SDS011;2361;49.540;8.390;2023-03-01T15:32:28;8.63;;;5.77;;
4694;SDS011;2361;49.540;8.390;2023-03-01T15:41:38;7.87;;;5.90;;
4694;SDS011;2361;49.540;8.390;2023-03-01T15:44:15;3.60;;;3.20;;
4694;SDS011;2361;49.540;8.390;2023-03-01T15:49:57;3.83;;;2.40;;
4694;SDS011;2361;49.540;8.390;2023-03-01T15:52:35;6.33;;;3.40;;
4694;SDS011;2361;49.540;8.390;2023-03-01T15:55:15;5.03;;;2.03;;
4694;SDS011;2361;49.540;8.390;2023-03-01T15:57:45;7.23;;;5.33;;
4694;SDS011;2361;49.540;8.390;2023-03-01T16:00:14;2.97;;;2.20;;
4694;SDS011;2361;49.540;8.390;2023-03-01T16:02:43;7.63;;;5.60;;
4694;SDS011;2361;49.540;8.390;2023-03-01T16:05:19;10.57;;;6.70;;
4694;SDS011;2361;49.540;8.390;2023-03-01T16:07:49;5.77;;;3.90;;
4694;SDS011;2361;49.540;8.390;2023-03-01T16:10:17;2.00;;;1.77;;
4694;SDS011;2361;49.540;8.390;2023-03-01T16:12:45;6.30;;;4.50;;
4694;SDS011;2361;49.540;8.390;2023-03-01T16:15:15;5.83;;;4.17;;
4694;SDS011;2361;49.540;8.390;2023-03-01T16:17:48;8.53;;;2.93;;
4694;SDS011;2361;49.540;8.390;2023-03-01T16:20:15;7.90;;;4.30;;
4694;SDS011;2361;49.540;8.390;2023-03-01T16:22:52;8.43;;;5.20;;
4694;SDS011;2361;49.540;8.390;2023-03-01T16:25:20;7.87;;;4.80;;
4694;SDS011;2361;49.540;8.390;2023-03-01T16:27:48;10.03;;;5.13;;
4694;SDS011;2361;49.540;8.390;2023-03-01T16:30:18;8.80;;;4.23;;
4694;SDS011;2361;49.540;8.390;2023-03-01T16:32:47;14.33;;;5.00;;
4694;SDS011;2361;49.540;8.390;2023-03-01T16:35:17;9.40;;;4.77;;
4694;SDS011;2361;49.540;8.390;2023-03-01T16:37:46;7.93;;;6.30;;
4694;SDS011;2361;49.540;8.390;2023-03-01T16:40:24;8.80;;;6.23;;
4694;SDS011;2361;49.540;8.390;2023-03-01T16:42:54;13.13;;;7.87;;
4694;SDS011;2361;49.540;8.390;2023-03-01T16:45:26;8.33;;;5.20;;
4694;SDS011;2361;49.540;8.390;2023-03-01T16:48:03;13.00;;;6.37;;
4694;SDS011;2361;49.540;8.390;2023-03-01T16:50:30;14.37;;;6.77;;
4694;SDS011;2361;49.540;8.390;2023-03-01T16:52:57;8.50;;;5.80;;
4694;SDS011;2361;49.540;8.390;2023-03-01T16:55:24;11.83;;;7.00;;
4694;SDS011;2361;49.540;8.390;2023-03-01T16:57:51;10.70;;;5.87;;
4694;SDS011;2361;49.540;8.390;2023-03-01T17:00:18;11.27;;;6.93;;
4694;SDS011;2361;49.540;8.390;2023-03-01T17:02:46;11.83;;;6.90;;
4694;SDS011;2361;49.540;8.390;2023-03-01T17:05:13;10.70;;;7.70;;
4694;SDS011;2361;49.540;8.390;2023-03-01T17:07:40;13.80;;;7.97;;
4694;SDS011;2361;49.540;8.390;2023-03-01T17:10:07;10.50;;;7.27;;
4694;SDS011;2361;49.540;8.390;2023-03-01T17:12:36;10.93;;;6.90;;
4694;SDS011;2361;49.540;8.390;2023-03-01T17:15:04;14.00;;;7.80;;
4694;SDS011;2361;49.540;8.390;2023-03-01T17:17:32;8.87;;;5.70;;
4694;SDS011;2361;49.540;8.390;2023-03-01T17:20:00;11.53;;;6.40;;
4694;SDS011;2361;49.540;8.390;2023-03-01T17:22:30;9.60;;;7.07;;
4694;SDS011;2361;49.540;8.390;2023-03-01T17:24:57;16.70;;;7.70;;
4694;SDS011;2361;49.540;8.390;2023-03-01T17:27:24;13.03;;;7.40;;
4694;SDS011;2361;49.540;8.390;2023-03-01T17:29:51;11.30;;;7.80;;
4694;SDS011;2361;49.540;8.390;2023-03-01T17:32:18;14.33;;;7.90;;
4694;SDS011;2361;49.540;8.390;2023-03-01T17:34:45;11.10;;;7.20;;
4694;SDS011;2361;49.540;8.390;2023-03-01T17:37:12;12.00;;;8.23;;
4694;SDS011;2361;49.540;8.390;2023-03-01T17:39:39;11.80;;;7.30;;
4694;SDS011;2361;49.540;8.390;2023-03-01T17:42:06;11.45;;;7.88;;
4694;SDS011;2361;49.540;8.390;2023-03-01T17:44:33;16.02;;;7.75;;
4694;SDS011;2361;49.540;8.390;2023-03-01T17:47:03;14.75;;;8.65;;
4694;SDS011;2361;49.540;8.390;2023-03-01T17:49:31;11.83;;;8.00;;
4694;SDS011;2361;49.540;8.390;2023-03-01T17:51:58;13.65;;;7.80;;
4694;SDS011;2361;49.540;8.390;2023-03-01T17:54:26;12.02;;;7.85;;
4694;SDS011;2361;49.540;8.390;2023-03-01T17:56:52;12.75;;;7.00;;
4694;SDS011;2361;49.540;8.390;2023-03-01T17:59:21;9.45;;;5.55;;
4694;SDS011;2361;49.540;8.390;2023-03-01T18:01:48;10.88;;;6.40;;
4694;SDS011;2361;49.540;8.390;2023-03-01T18:04:15;11.45;;;7.30;;